Flight Track Log - Related Links

Times and Time Zones

All times are in EDT time to prevent confusion due to time zone crossing. See the AWI3551 flight status page for this flight to view local times or setup timezone preferences in your user account.

Time Position Orientation Groundspeed Altitude Reporting Facility
EDT Latitude Longitude Course Direction KTS MPH feet Rate Location/Type
Sat 08:03:31 AM 42.7319 -73.8081 172° South 162 186 1,100  Level Boston Center
Sat 08:04:25 AM 42.6881 -73.8186 190° South 194 223 3,000 2,348 Climbing Boston Center
Sat 08:05:49 AM 42.7222 -73.9039 299° West 224 258 6,500 2,458 Climbing Boston Center
Sat 08:06:00 AM 42.5253 -74.0007 171° South  Level Estimated
Sat 08:06:49 AM 42.7653 -73.9672 313° West 224 258 8,900  Level Boston Center
Sat 08:07:00 AM 42.4506 -74.0667 180° South  Level Estimated
Sat 08:07:49 AM 42.8039 -74.0333 309° West 224 258 11,400  Level Boston Center
Sat 08:08:00 AM 42.3759 -74.1324 172° South  Level Estimated
Sat 08:08:49 AM 42.8006 -74.1322 267° West 221 254 12,900  Level Boston Center
Sat 08:09:49 AM 42.7436 -74.1731 208° Southwest 222 255 13,900 1,100 Climbing Boston Center
Sat 08:10:49 AM 42.6608 -74.1256 157° South 255 293 15,100 1,150 Climbing Boston Center
Sat 08:11:49 AM 42.5867 -74.0814 156° South 307 353 16,200 1,750 Climbing Boston Center
Sat 08:12:49 AM 42.4936 -74.0281 157° South 332 382 18,600 1,950 Climbing Boston Center
Sat 08:13:49 AM 42.4211 -73.9897 159° South 327 376 20,100 1,450 Climbing Boston Center
Sat 08:14:49 AM 42.3364 -73.9400 157° South 332 382 21,500 1,450 Climbing Boston Center
Sat 08:15:49 AM 42.2514 -73.8875 155° Southeast 332 382 23,000 1,250 Climbing Boston Center
Sat 08:16:49 AM 42.1667 -73.8378 156° South 332 382 24,000 1,150 Climbing Boston Center
Sat 08:17:49 AM 42.0797 -73.7911 158° South 332 382 25,300 700 Climbing Boston Center
Sat 08:18:49 AM 41.9919 -73.8200 194° South 314 361 25,400 350 Climbing Boston Center
Sat 08:19:49 AM 41.9039 -73.8628 200° South 319 367 26,000 196 Climbing Boston Center
Sat 08:21:53 AM 41.7183 -73.9531 200° South 332 382 26,000  Level New York Center
Sat 08:22:51 AM 41.6361 -73.9936 200° South 332 382 26,000  Level New York Center
Sat 08:23:51 AM 41.5517 -74.0367 201° Southwest 332 382 26,000  Level New York Center
Sat 08:24:51 AM 41.4608 -74.0792 199° South 332 382 26,000  Level New York Center
Sat 08:25:51 AM 41.3703 -74.1217 199° South 338 389 26,000  Level New York Center
Sat 08:26:52 AM 41.2814 -74.1669 201° Southwest 343 395 26,000  Level New York Center
Sat 08:27:53 AM 41.1969 -74.2067 199° South 343 395 26,000  Level New York Center
Sat 08:28:53 AM 41.1083 -74.2464 199° South 351 404 26,000  Level New York Center
Sat 08:29:52 AM 41.0239 -74.2886 201° Southwest 346 398 26,000  Level New York Center
Sat 08:30:53 AM 40.9392 -74.3283 200° South 335 386 26,000  Level New York Center
Sat 08:31:53 AM 40.8547 -74.3678 199° South 330 380 26,000  Level New York Center
Sat 08:32:51 AM 40.7739 -74.4264 209° Southwest 330 380 26,000  Level New York Center
Sat 08:33:52 AM 40.7167 -74.5167 230° Southwest 321 369 26,000  Level New York Center
Sat 08:34:53 AM 40.6617 -74.6119 233° Southwest 327 376 26,000  Level New York Center
Sat 08:35:51 AM 40.6086 -74.7075 234° Southwest 332 382 26,000  Level New York Center
Sat 08:36:51 AM 40.5342 -74.8097 226° Southwest 343 395 26,000 -99 Level New York Center
Sat 08:37:52 AM 40.4706 -74.9014 228° Southwest 349 402 25,800 -350 Descending New York Center
Sat 08:38:51 AM 40.4047 -74.9956 227° Southwest 354 407 25,300 -504 Descending New York Center
Sat 08:39:51 AM 40.3389 -75.0869 227° Southwest 354 407 24,800 -496 Descending New York Center
Sat 08:40:52 AM 40.2747 -75.1836 229° Southwest 354 407 24,300 -496 Descending New York Center
Sat 08:41:52 AM 40.2069 -75.2744 226° Southwest 354 407 23,800 -496 Descending New York Center
Sat 08:42:53 AM 40.1428 -75.3706 229° Southwest 359 413 23,300 -496 Descending New York Center
Sat 08:43:53 AM 40.0722 -75.4664 226° Southwest 365 420 22,800 -500 Descending New York Center
Sat 08:44:53 AM 40.0039 -75.5594 226° Southwest 365 420 22,300 -407 Descending New York Center
Sat 08:45:51 AM 39.9353 -75.6575 228° Southwest 365 420 22,000 -252 Descending New York Center
Sat 08:46:52 AM 39.8747 -75.7589 232° Southwest 365 420 21,800 -446 Descending New York Center
Sat 08:47:52 AM 39.8119 -75.8569 230° Southwest 360 414 21,100 -684 Descending New York Center
Sat 08:49:30 AM 39.7167 -76.0167 232° Southwest 345 397 20,000 -829 Descending Potomac TRACON
Sat 08:50:24 AM 39.6500 -76.1000 224° Southwest 346 398 19,000 -1,952 Descending Potomac TRACON
Sat 08:51:36 AM 39.5833 -76.2167 233° Southwest 328 377 15,900 -2,409 Descending Potomac TRACON
Sat 08:52:31 AM 39.5333 -76.3000 232° Southwest 326 375 13,900 -2,035 Descending Potomac TRACON
Sat 08:53:31 AM 39.4667 -76.3833 224° Southwest 321 369 12,000 -1,050 Descending Potomac TRACON
Sat 08:54:31 AM 39.4000 -76.4667 224° Southwest 311 358 11,800 -574 Descending Potomac TRACON
Sat 08:55:26 AM 39.3500 -76.5167 218° Southwest 303 349 10,900 -939 Descending Potomac TRACON
Sat 08:56:26 AM 39.2833 -76.5667 210° Southwest 271 312 10,000 -474 Descending Potomac TRACON
Sat 08:57:20 AM 39.2167 -76.6167 210° Southwest 269 310 10,000  Level Potomac TRACON
Sat 08:58:20 AM 39.1667 -76.6667 218° Southwest 269 310 10,000  Level Potomac TRACON
Sat 08:59:26 AM 39.1000 -76.7500 224° Southwest 264 304 10,000  Level Potomac TRACON
Sat 09:00:27 AM 39.0500 -76.8167 226° Southwest 265 305 10,000 -104 Level Potomac TRACON
Sat 09:01:21 AM 39.0000 -76.8667 218° Southwest 270 311 9,800 -842 Descending Potomac TRACON
Sat 09:02:21 AM 38.9667 -76.9500 243° Southwest 272 313 8,400 -1,421 Descending Potomac TRACON
Sat 09:03:15 AM 38.9833 -77.0333 284° West 263 303 7,100 -1,263 Descending Potomac TRACON
Sat 09:04:15 AM 39.0333 -77.1000 314° West 255 293 6,000 -550 Descending Potomac TRACON
Sat 09:05:15 AM 39.0667 -77.1500 311° West 196 226 6,000  Level Potomac TRACON
Sat 09:06:10 AM 39.1000 -77.1833 322° Northwest 185 213 6,000 -99 Level Potomac TRACON
Sat 09:07:16 AM 39.1500 -77.2500 314° West 187 215 5,800 -476 Descending Potomac TRACON
Sat 09:08:16 AM 39.1167 -77.2667 201° Southwest 198 228 5,000 -600 Descending Potomac TRACON
Sat 09:09:16 AM 39.0667 -77.2167 142° Southeast 196 226 4,600 -316 Descending Potomac TRACON
Sat 09:10:10 AM 39.0333 -77.1833 142° Southeast 192 221 4,400 -222 Descending Potomac TRACON

Login

Don't have an account? Register now (free) for customized features, flight alerts, and more!